sensor_id;sensor_type;location;lat;lon;timestamp;P1;durP1;ratioP1;P2;durP2;ratioP2
17151;SDS011;8691;50.828;4.700;2022-10-20T00:01:14;18.52;;;16.42;;
17151;SDS011;8691;50.828;4.700;2022-10-20T00:03:40;21.95;;;17.25;;
17151;SDS011;8691;50.828;4.700;2022-10-20T00:08:36;19.27;;;16.90;;
17151;SDS011;8691;50.828;4.700;2022-10-20T00:11:03;19.62;;;17.15;;
17151;SDS011;8691;50.828;4.700;2022-10-20T00:13:30;20.58;;;17.85;;
17151;SDS011;8691;50.828;4.700;2022-10-20T00:15:58;18.83;;;16.83;;
17151;SDS011;8691;50.828;4.700;2022-10-20T00:18:25;21.60;;;17.70;;
17151;SDS011;8691;50.828;4.700;2022-10-20T00:20:52;20.60;;;17.30;;
17151;SDS011;8691;50.828;4.700;2022-10-20T00:23:20;20.23;;;16.92;;
17151;SDS011;8691;50.828;4.700;2022-10-20T00:25:47;18.90;;;16.95;;
17151;SDS011;8691;50.828;4.700;2022-10-20T00:28:13;17.00;;;14.10;;
17151;SDS011;8691;50.828;4.700;2022-10-20T00:30:40;19.37;;;17.37;;
17151;SDS011;8691;50.828;4.700;2022-10-20T00:33:07;20.83;;;17.02;;
17151;SDS011;8691;50.828;4.700;2022-10-20T00:35:36;18.90;;;16.83;;
17151;SDS011;8691;50.828;4.700;2022-10-20T00:38:02;20.05;;;17.40;;
17151;SDS011;8691;50.828;4.700;2022-10-20T00:40:29;19.58;;;17.10;;
17151;SDS011;8691;50.828;4.700;2022-10-20T00:42:55;19.87;;;15.80;;
17151;SDS011;8691;50.828;4.700;2022-10-20T00:45:22;20.43;;;17.20;;
17151;SDS011;8691;50.828;4.700;2022-10-20T00:47:56;21.07;;;17.57;;
17151;SDS011;8691;50.828;4.700;2022-10-20T00:50:26;20.70;;;18.30;;
17151;SDS011;8691;50.828;4.700;2022-10-20T00:52:54;19.67;;;17.58;;
17151;SDS011;8691;50.828;4.700;2022-10-20T00:55:22;19.00;;;15.37;;
17151;SDS011;8691;50.828;4.700;2022-10-20T00:57:49;19.45;;;17.38;;
17151;SDS011;8691;50.828;4.700;2022-10-20T01:00:15;19.20;;;16.90;;
17151;SDS011;8691;50.828;4.700;2022-10-20T01:02:43;19.40;;;17.12;;
17151;SDS011;8691;50.828;4.700;2022-10-20T01:05:09;19.23;;;16.60;;
17151;SDS011;8691;50.828;4.700;2022-10-20T01:07:36;16.47;;;14.70;;
17151;SDS011;8691;50.828;4.700;2022-10-20T01:10:03;21.52;;;17.75;;
17151;SDS011;8691;50.828;4.700;2022-10-20T01:15:17;19.20;;;16.55;;
17151;SDS011;8691;50.828;4.700;2022-10-20T01:17:58;20.70;;;17.77;;
17151;SDS011;8691;50.828;4.700;2022-10-20T01:20:44;19.35;;;17.17;;
17151;SDS011;8691;50.828;4.700;2022-10-20T01:30:55;19.23;;;17.20;;
17151;SDS011;8691;50.828;4.700;2022-10-20T01:33:22;19.40;;;17.40;;
17151;SDS011;8691;50.828;4.700;2022-10-20T01:38:27;16.63;;;13.83;;
17151;SDS011;8691;50.828;4.700;2022-10-20T01:41:01;19.15;;;17.15;;
17151;SDS011;8691;50.828;4.700;2022-10-20T01:43:28;19.45;;;17.20;;
17151;SDS011;8691;50.828;4.700;2022-10-20T01:45:54;20.48;;;18.27;;
17151;SDS011;8691;50.828;4.700;2022-10-20T01:48:21;19.98;;;17.52;;
17151;SDS011;8691;50.828;4.700;2022-10-20T01:50:49;19.60;;;17.38;;
17151;SDS011;8691;50.828;4.700;2022-10-20T01:53:15;19.93;;;17.93;;
17151;SDS011;8691;50.828;4.700;2022-10-20T01:55:42;18.85;;;16.85;;
17151;SDS011;8691;50.828;4.700;2022-10-20T02:00:56;17.00;;;14.43;;
17151;SDS011;8691;50.828;4.700;2022-10-20T02:06:17;18.85;;;16.85;;
17151;SDS011;8691;50.828;4.700;2022-10-20T02:08:51;19.27;;;17.20;;
17151;SDS011;8691;50.828;4.700;2022-10-20T02:13:50;19.65;;;17.30;;
17151;SDS011;8691;50.828;4.700;2022-10-20T02:16:22;19.70;;;17.60;;
17151;SDS011;8691;50.828;4.700;2022-10-20T02:18:52;19.07;;;17.07;;
17151;SDS011;8691;50.828;4.700;2022-10-20T02:21:19;19.30;;;17.40;;
17151;SDS011;8691;50.828;4.700;2022-10-20T02:23:47;19.85;;;17.77;;
17151;SDS011;8691;50.828;4.700;2022-10-20T02:26:14;18.92;;;17.02;;
17151;SDS011;8691;50.828;4.700;2022-10-20T02:28:42;17.73;;;14.63;;
17151;SDS011;8691;50.828;4.700;2022-10-20T02:31:07;20.12;;;18.05;;
17151;SDS011;8691;50.828;4.700;2022-10-20T02:33:34;19.77;;;17.80;;
17151;SDS011;8691;50.828;4.700;2022-10-20T02:36:02;19.67;;;17.60;;
17151;SDS011;8691;50.828;4.700;2022-10-20T02:38:28;21.17;;;18.08;;
17151;SDS011;8691;50.828;4.700;2022-10-20T02:40:56;17.47;;;15.47;;
17151;SDS011;8691;50.828;4.700;2022-10-20T02:43:23;19.23;;;17.23;;
17151;SDS011;8691;50.828;4.700;2022-10-20T02:45:49;16.57;;;14.80;;
17151;SDS011;8691;50.828;4.700;2022-10-20T02:48:16;20.20;;;17.92;;
17151;SDS011;8691;50.828;4.700;2022-10-20T02:50:43;19.63;;;15.17;;
17151;SDS011;8691;50.828;4.700;2022-10-20T02:53:10;16.07;;;14.27;;
17151;SDS011;8691;50.828;4.700;2022-10-20T02:55:37;19.17;;;15.30;;
17151;SDS011;8691;50.828;4.700;2022-10-20T02:58:04;20.40;;;18.23;;
17151;SDS011;8691;50.828;4.700;2022-10-20T03:00:30;20.50;;;18.33;;
17151;SDS011;8691;50.828;4.700;2022-10-20T03:02:57;21.10;;;18.83;;
17151;SDS011;8691;50.828;4.700;2022-10-20T03:05:24;21.00;;;18.67;;
17151;SDS011;8691;50.828;4.700;2022-10-20T03:07:51;20.62;;;18.52;;
17151;SDS011;8691;50.828;4.700;2022-10-20T03:10:18;18.47;;;15.63;;
17151;SDS011;8691;50.828;4.700;2022-10-20T03:12:45;20.52;;;18.12;;
17151;SDS011;8691;50.828;4.700;2022-10-20T03:15:12;21.58;;;18.85;;
17151;SDS011;8691;50.828;4.700;2022-10-20T03:17:40;22.73;;;19.40;;
17151;SDS011;8691;50.828;4.700;2022-10-20T03:20:07;20.60;;;18.55;;
17151;SDS011;8691;50.828;4.700;2022-10-20T03:22:34;21.60;;;19.30;;
17151;SDS011;8691;50.828;4.700;2022-10-20T03:25:01;20.60;;;18.53;;
17151;SDS011;8691;50.828;4.700;2022-10-20T03:27:27;21.25;;;18.45;;
17151;SDS011;8691;50.828;4.700;2022-10-20T03:29:54;18.73;;;15.03;;
17151;SDS011;8691;50.828;4.700;2022-10-20T03:32:21;20.17;;;18.07;;
17151;SDS011;8691;50.828;4.700;2022-10-20T03:34:48;20.20;;;18.17;;
17151;SDS011;8691;50.828;4.700;2022-10-20T03:37:15;20.27;;;18.27;;
17151;SDS011;8691;50.828;4.700;2022-10-20T03:39:42;16.80;;;14.83;;
17151;SDS011;8691;50.828;4.700;2022-10-20T03:42:09;19.50;;;17.50;;
17151;SDS011;8691;50.828;4.700;2022-10-20T03:44:36;20.23;;;18.33;;
17151;SDS011;8691;50.828;4.700;2022-10-20T03:47:03;19.60;;;17.58;;
17151;SDS011;8691;50.828;4.700;2022-10-20T03:49:30;20.23;;;18.00;;
17151;SDS011;8691;50.828;4.700;2022-10-20T03:51:57;18.98;;;16.98;;
17151;SDS011;8691;50.828;4.700;2022-10-20T03:54:24;18.98;;;17.08;;
17151;SDS011;8691;50.828;4.700;2022-10-20T03:56:50;15.57;;;13.83;;
17151;SDS011;8691;50.828;4.700;2022-10-20T03:59:17;19.52;;;17.48;;
17151;SDS011;8691;50.828;4.700;2022-10-20T04:01:44;19.48;;;17.48;;
17151;SDS011;8691;50.828;4.700;2022-10-20T04:04:12;19.97;;;17.33;;
17151;SDS011;8691;50.828;4.700;2022-10-20T04:06:39;19.73;;;17.83;;
17151;SDS011;8691;50.828;4.700;2022-10-20T04:09:07;20.88;;;17.85;;
17151;SDS011;8691;50.828;4.700;2022-10-20T04:11:34;19.65;;;17.70;;
17151;SDS011;8691;50.828;4.700;2022-10-20T04:14:01;20.45;;;17.35;;
17151;SDS011;8691;50.828;4.700;2022-10-20T04:16:28;20.27;;;18.17;;
17151;SDS011;8691;50.828;4.700;2022-10-20T04:18:56;19.73;;;17.77;;
17151;SDS011;8691;50.828;4.700;2022-10-20T04:21:23;19.33;;;17.27;;
17151;SDS011;8691;50.828;4.700;2022-10-20T04:23:50;19.00;;;17.10;;
17151;SDS011;8691;50.828;4.700;2022-10-20T04:26:17;22.77;;;15.87;;
17151;SDS011;8691;50.828;4.700;2022-10-20T04:28:43;19.55;;;17.52;;
17151;SDS011;8691;50.828;4.700;2022-10-20T04:31:10;20.60;;;18.45;;
17151;SDS011;8691;50.828;4.700;2022-10-20T04:33:37;19.30;;;15.10;;
17151;SDS011;8691;50.828;4.700;2022-10-20T04:36:09;21.08;;;18.90;;
17151;SDS011;8691;50.828;4.700;2022-10-20T04:38:31;22.10;;;18.00;;
17151;SDS011;8691;50.828;4.700;2022-10-20T04:40:58;19.80;;;17.90;;
17151;SDS011;8691;50.828;4.700;2022-10-20T04:43:25;19.60;;;17.50;;
17151;SDS011;8691;50.828;4.700;2022-10-20T04:45:52;20.25;;;17.45;;
17151;SDS011;8691;50.828;4.700;2022-10-20T04:48:20;19.65;;;17.10;;
17151;SDS011;8691;50.828;4.700;2022-10-20T04:50:47;18.55;;;16.55;;
17151;SDS011;8691;50.828;4.700;2022-10-20T04:53:13;19.05;;;16.95;;
17151;SDS011;8691;50.828;4.700;2022-10-20T04:55:40;19.00;;;17.00;;
17151;SDS011;8691;50.828;4.700;2022-10-20T04:58:08;16.37;;;13.63;;
17151;SDS011;8691;50.828;4.700;2022-10-20T05:00:36;18.13;;;16.33;;
17151;SDS011;8691;50.828;4.700;2022-10-20T05:03:02;18.55;;;16.65;;
17151;SDS011;8691;50.828;4.700;2022-10-20T05:05:29;17.00;;;12.80;;
17151;SDS011;8691;50.828;4.700;2022-10-20T05:07:56;18.25;;;16.40;;
17151;SDS011;8691;50.828;4.700;2022-10-20T05:10:23;18.85;;;16.85;;
17151;SDS011;8691;50.828;4.700;2022-10-20T05:12:50;16.70;;;13.07;;
17151;SDS011;8691;50.828;4.700;2022-10-20T05:15:18;18.38;;;16.30;;
17151;SDS011;8691;50.828;4.700;2022-10-20T05:17:45;17.73;;;15.80;;
17151;SDS011;8691;50.828;4.700;2022-10-20T05:20:12;17.80;;;15.87;;
17151;SDS011;8691;50.828;4.700;2022-10-20T05:22:39;17.13;;;15.43;;
17151;SDS011;8691;50.828;4.700;2022-10-20T05:25:06;15.20;;;12.50;;
17151;SDS011;8691;50.828;4.700;2022-10-20T05:27:33;17.50;;;12.13;;
17151;SDS011;8691;50.828;4.700;2022-10-20T05:29:59;15.62;;;14.02;;
17151;SDS011;8691;50.828;4.700;2022-10-20T05:32:26;17.75;;;14.77;;
17151;SDS011;8691;50.828;4.700;2022-10-20T05:34:53;16.02;;;14.38;;
17151;SDS011;8691;50.828;4.700;2022-10-20T05:37:20;14.93;;;11.60;;
17151;SDS011;8691;50.828;4.700;2022-10-20T05:39:47;14.82;;;13.32;;
17151;SDS011;8691;50.828;4.700;2022-10-20T05:42:13;12.27;;;10.90;;
17151;SDS011;8691;50.828;4.700;2022-10-20T05:44:40;14.73;;;13.12;;
17151;SDS011;8691;50.828;4.700;2022-10-20T05:47:07;14.15;;;12.23;;
17151;SDS011;8691;50.828;4.700;2022-10-20T05:49:34;15.60;;;10.43;;
17151;SDS011;8691;50.828;4.700;2022-10-20T05:52:01;13.50;;;12.12;;
17151;SDS011;8691;50.828;4.700;2022-10-20T05:54:28;15.07;;;11.23;;
17151;SDS011;8691;50.828;4.700;2022-10-20T05:56:55;13.33;;;11.93;;
17151;SDS011;8691;50.828;4.700;2022-10-20T05:59:22;12.10;;;10.67;;
17151;SDS011;8691;50.828;4.700;2022-10-20T06:01:49;13.30;;;12.00;;
17151;SDS011;8691;50.828;4.700;2022-10-20T06:04:18;13.05;;;11.80;;
17151;SDS011;8691;50.828;4.700;2022-10-20T06:06:43;13.55;;;12.18;;
17151;SDS011;8691;50.828;4.700;2022-10-20T06:09:10;12.53;;;10.67;;
17151;SDS011;8691;50.828;4.700;2022-10-20T06:11:37;12.65;;;11.35;;
17151;SDS011;8691;50.828;4.700;2022-10-20T06:14:04;11.97;;;10.33;;
17151;SDS011;8691;50.828;4.700;2022-10-20T06:16:31;13.80;;;10.63;;
17151;SDS011;8691;50.828;4.700;2022-10-20T06:18:57;14.10;;;10.90;;
17151;SDS011;8691;50.828;4.700;2022-10-20T06:21:25;14.30;;;12.80;;
17151;SDS011;8691;50.828;4.700;2022-10-20T06:23:51;15.15;;;12.60;;
17151;SDS011;8691;50.828;4.700;2022-10-20T06:26:19;15.68;;;12.88;;
17151;SDS011;8691;50.828;4.700;2022-10-20T06:28:47;12.75;;;11.60;;
17151;SDS011;8691;50.828;4.700;2022-10-20T06:31:20;13.82;;;12.43;;
17151;SDS011;8691;50.828;4.700;2022-10-20T06:33:49;11.53;;;10.43;;
17151;SDS011;8691;50.828;4.700;2022-10-20T06:36:16;13.55;;;12.25;;
17151;SDS011;8691;50.828;4.700;2022-10-20T06:38:44;13.70;;;12.40;;
17151;SDS011;8691;50.828;4.700;2022-10-20T06:41:12;14.05;;;11.75;;
17151;SDS011;8691;50.828;4.700;2022-10-20T06:43:37;13.12;;;11.82;;
17151;SDS011;8691;50.828;4.700;2022-10-20T06:46:05;13.30;;;11.90;;
17151;SDS011;8691;50.828;4.700;2022-10-20T06:48:31;15.68;;;13.48;;
17151;SDS011;8691;50.828;4.700;2022-10-20T06:51:03;13.60;;;12.07;;
17151;SDS011;8691;50.828;4.700;2022-10-20T06:53:26;13.62;;;12.30;;
17151;SDS011;8691;50.828;4.700;2022-10-20T06:55:56;16.35;;;12.18;;
17151;SDS011;8691;50.828;4.700;2022-10-20T06:58:23;13.43;;;12.20;;
17151;SDS011;8691;50.828;4.700;2022-10-20T07:00:57;12.95;;;11.60;;
17151;SDS011;8691;50.828;4.700;2022-10-20T07:03:23;12.95;;;11.65;;
17151;SDS011;8691;50.828;4.700;2022-10-20T07:05:50;12.70;;;11.50;;
17151;SDS011;8691;50.828;4.700;2022-10-20T07:08:17;13.75;;;12.30;;
17151;SDS011;8691;50.828;4.700;2022-10-20T07:10:43;15.60;;;10.93;;
17151;SDS011;8691;50.828;4.700;2022-10-20T07:13:10;13.13;;;11.90;;
17151;SDS011;8691;50.828;4.700;2022-10-20T07:15:37;12.62;;;11.35;;
17151;SDS011;8691;50.828;4.700;2022-10-20T07:18:04;12.98;;;11.68;;
17151;SDS011;8691;50.828;4.700;2022-10-20T07:20:31;13.45;;;12.05;;
17151;SDS011;8691;50.828;4.700;2022-10-20T07:22:59;12.62;;;11.43;;
17151;SDS011;8691;50.828;4.700;2022-10-20T07:25:25;12.70;;;11.50;;
17151;SDS011;8691;50.828;4.700;2022-10-20T07:27:53;11.70;;;10.03;;
17151;SDS011;8691;50.828;4.700;2022-10-20T07:30:19;12.93;;;10.90;;
17151;SDS011;8691;50.828;4.700;2022-10-20T07:32:47;12.10;;;10.88;;
17151;SDS011;8691;50.828;4.700;2022-10-20T07:35:14;13.10;;;11.40;;
17151;SDS011;8691;50.828;4.700;2022-10-20T07:37:41;11.77;;;10.23;;
17151;SDS011;8691;50.828;4.700;2022-10-20T07:40:08;10.98;;;9.60;;
17151;SDS011;8691;50.828;4.700;2022-10-20T07:42:35;11.05;;;9.95;;
17151;SDS011;8691;50.828;4.700;2022-10-20T07:45:02;10.03;;;7.97;;
17151;SDS011;8691;50.828;4.700;2022-10-20T07:47:29;9.80;;;8.80;;
17151;SDS011;8691;50.828;4.700;2022-10-20T07:49:56;9.88;;;8.88;;
17151;SDS011;8691;50.828;4.700;2022-10-20T07:52:22;9.70;;;8.53;;
17151;SDS011;8691;50.828;4.700;2022-10-20T07:54:49;11.82;;;9.48;;
17151;SDS011;8691;50.828;4.700;2022-10-20T07:57:16;10.20;;;8.13;;
17151;SDS011;8691;50.828;4.700;2022-10-20T07:59:43;10.18;;;8.50;;
17151;SDS011;8691;50.828;4.700;2022-10-20T08:02:10;10.57;;;7.30;;
17151;SDS011;8691;50.828;4.700;2022-10-20T08:04:36;11.25;;;8.62;;
17151;SDS011;8691;50.828;4.700;2022-10-20T08:07:03;9.88;;;8.32;;
17151;SDS011;8691;50.828;4.700;2022-10-20T08:09:31;9.12;;;8.10;;
17151;SDS011;8691;50.828;4.700;2022-10-20T08:11:57;9.00;;;7.77;;
17151;SDS011;8691;50.828;4.700;2022-10-20T08:14:24;10.80;;;8.50;;
17151;SDS011;8691;50.828;4.700;2022-10-20T08:16:54;9.40;;;7.90;;
17151;SDS011;8691;50.828;4.700;2022-10-20T08:19:21;10.38;;;8.20;;
17151;SDS011;8691;50.828;4.700;2022-10-20T08:21:48;10.13;;;8.13;;
17151;SDS011;8691;50.828;4.700;2022-10-20T08:24:15;9.20;;;8.30;;
17151;SDS011;8691;50.828;4.700;2022-10-20T08:26:42;10.55;;;7.90;;
17151;SDS011;8691;50.828;4.700;2022-10-20T08:29:09;11.63;;;8.00;;
17151;SDS011;8691;50.828;4.700;2022-10-20T08:31:36;13.40;;;8.20;;
17151;SDS011;8691;50.828;4.700;2022-10-20T08:34:02;7.93;;;6.43;;
17151;SDS011;8691;50.828;4.700;2022-10-20T08:36:29;9.33;;;7.70;;
17151;SDS011;8691;50.828;4.700;2022-10-20T08:38:59;10.52;;;8.60;;
17151;SDS011;8691;50.828;4.700;2022-10-20T08:41:27;11.35;;;8.23;;
17151;SDS011;8691;50.828;4.700;2022-10-20T08:43:53;10.97;;;8.47;;
17151;SDS011;8691;50.828;4.700;2022-10-20T08:46:22;10.23;;;8.27;;
17151;SDS011;8691;50.828;4.700;2022-10-20T08:48:47;13.10;;;8.60;;
17151;SDS011;8691;50.828;4.700;2022-10-20T08:51:18;10.73;;;8.73;;
17151;SDS011;8691;50.828;4.700;2022-10-20T08:53:43;12.87;;;9.00;;
17151;SDS011;8691;50.828;4.700;2022-10-20T08:56:11;11.50;;;8.00;;
17151;SDS011;8691;50.828;4.700;2022-10-20T08:58:40;10.60;;;8.90;;
17151;SDS011;8691;50.828;4.700;2022-10-20T09:01:19;13.77;;;10.23;;
17151;SDS011;8691;50.828;4.700;2022-10-20T09:03:34;12.63;;;8.77;;
17151;SDS011;8691;50.828;4.700;2022-10-20T09:06:22;12.47;;;8.40;;
17151;SDS011;8691;50.828;4.700;2022-10-20T09:08:34;13.20;;;10.30;;
17151;SDS011;8691;50.828;4.700;2022-10-20T09:11:00;11.47;;;10.27;;
17151;SDS011;8691;50.828;4.700;2022-10-20T09:13:28;12.53;;;10.77;;
17151;SDS011;8691;50.828;4.700;2022-10-20T09:15:58;12.65;;;11.05;;
17151;SDS011;8691;50.828;4.700;2022-10-20T09:18:24;14.02;;;11.60;;
17151;SDS011;8691;50.828;4.700;2022-10-20T09:20:55;14.80;;;11.65;;
17151;SDS011;8691;50.828;4.700;2022-10-20T09:23:23;13.27;;;10.83;;
17151;SDS011;8691;50.828;4.700;2022-10-20T09:25:49;15.80;;;10.03;;
17151;SDS011;8691;50.828;4.700;2022-10-20T09:28:23;17.42;;;12.02;;
17151;SDS011;8691;50.828;4.700;2022-10-20T09:30:46;16.33;;;11.73;;
17151;SDS011;8691;50.828;4.700;2022-10-20T09:35:57;13.87;;;12.27;;
17151;SDS011;8691;50.828;4.700;2022-10-20T09:38:23;16.02;;;12.05;;
17151;SDS011;8691;50.828;4.700;2022-10-20T09:43:40;13.17;;;10.10;;
17151;SDS011;8691;50.828;4.700;2022-10-20T09:46:07;14.12;;;11.48;;
17151;SDS011;8691;50.828;4.700;2022-10-20T09:48:34;14.53;;;9.97;;
17151;SDS011;8691;50.828;4.700;2022-10-20T09:51:00;12.80;;;11.55;;
17151;SDS011;8691;50.828;4.700;2022-10-20T09:53:34;13.17;;;9.90;;
17151;SDS011;8691;50.828;4.700;2022-10-20T09:55:57;12.98;;;11.43;;
17151;SDS011;8691;50.828;4.700;2022-10-20T09:58:28;14.70;;;12.00;;
17151;SDS011;8691;50.828;4.700;2022-10-20T10:03:40;15.62;;;12.00;;
17151;SDS011;8691;50.828;4.700;2022-10-20T10:06:49;13.13;;;11.30;;
17151;SDS011;8691;50.828;4.700;2022-10-20T10:08:51;13.00;;;11.43;;
17151;SDS011;8691;50.828;4.700;2022-10-20T10:11:20;13.25;;;10.95;;
17151;SDS011;8691;50.828;4.700;2022-10-20T10:13:46;13.32;;;11.12;;
17151;SDS011;8691;50.828;4.700;2022-10-20T10:16:13;12.48;;;10.75;;
17151;SDS011;8691;50.828;4.700;2022-10-20T10:18:45;11.47;;;10.10;;
17151;SDS011;8691;50.828;4.700;2022-10-20T10:21:13;12.50;;;9.43;;
17151;SDS011;8691;50.828;4.700;2022-10-20T10:29:18;11.90;;;9.90;;
17151;SDS011;8691;50.828;4.700;2022-10-20T10:31:48;13.38;;;10.15;;
17151;SDS011;8691;50.828;4.700;2022-10-20T10:36:39;11.53;;;10.10;;
17151;SDS011;8691;50.828;4.700;2022-10-20T10:39:08;11.90;;;9.40;;
17151;SDS011;8691;50.828;4.700;2022-10-20T10:47:07;12.83;;;9.00;;
17151;SDS011;8691;50.828;4.700;2022-10-20T10:49:48;9.23;;;7.67;;
17151;SDS011;8691;50.828;4.700;2022-10-20T10:57:56;10.97;;;7.77;;
17151;SDS011;8691;50.828;4.700;2022-10-20T11:08:47;8.17;;;6.57;;
17151;SDS011;8691;50.828;4.700;2022-10-20T11:13:55;10.27;;;7.47;;
17151;SDS011;8691;50.828;4.700;2022-10-20T11:16:39;8.33;;;5.90;;
17151;SDS011;8691;50.828;4.700;2022-10-20T11:22:07;8.23;;;6.45;;
17151;SDS011;8691;50.828;4.700;2022-10-20T11:27:17;8.23;;;7.35;;
17151;SDS011;8691;50.828;4.700;2022-10-20T11:29:55;7.33;;;5.93;;
17151;SDS011;8691;50.828;4.700;2022-10-20T11:34:59;7.95;;;5.80;;
17151;SDS011;8691;50.828;4.700;2022-10-20T11:37:37;12.17;;;5.10;;
17151;SDS011;8691;50.828;4.700;2022-10-20T11:40:12;8.32;;;5.00;;
17151;SDS011;8691;50.828;4.700;2022-10-20T11:42:44;8.00;;;5.38;;
17151;SDS011;8691;50.828;4.700;2022-10-20T11:47:53;9.70;;;5.30;;
17151;SDS011;8691;50.828;4.700;2022-10-20T11:50:18;7.03;;;4.40;;
17151;SDS011;8691;50.828;4.700;2022-10-20T11:55:38;8.20;;;5.27;;
17151;SDS011;8691;50.828;4.700;2022-10-20T12:00:59;8.90;;;4.60;;
17151;SDS011;8691;50.828;4.700;2022-10-20T12:17:13;7.37;;;4.20;;
17151;SDS011;8691;50.828;4.700;2022-10-20T12:19:39;7.45;;;4.50;;
17151;SDS011;8691;50.828;4.700;2022-10-20T12:24:43;8.07;;;4.20;;
17151;SDS011;8691;50.828;4.700;2022-10-20T12:27:19;5.85;;;3.90;;
17151;SDS011;8691;50.828;4.700;2022-10-20T12:29:49;8.97;;;4.20;;
17151;SDS011;8691;50.828;4.700;2022-10-20T12:34:48;10.73;;;3.53;;
17151;SDS011;8691;50.828;4.700;2022-10-20T12:37:17;6.47;;;3.55;;
17151;SDS011;8691;50.828;4.700;2022-10-20T12:39:53;6.53;;;3.50;;
17151;SDS011;8691;50.828;4.700;2022-10-20T12:42:26;3.57;;;2.83;;
17151;SDS011;8691;50.828;4.700;2022-10-20T12:44:49;5.62;;;3.60;;
17151;SDS011;8691;50.828;4.700;2022-10-20T12:47:26;9.20;;;3.50;;
17151;SDS011;8691;50.828;4.700;2022-10-20T12:49:56;5.67;;;3.60;;
17151;SDS011;8691;50.828;4.700;2022-10-20T12:52:25;5.38;;;3.50;;
17151;SDS011;8691;50.828;4.700;2022-10-20T12:54:52;5.80;;;3.37;;
17151;SDS011;8691;50.828;4.700;2022-10-20T12:57:31;6.78;;;3.50;;
17151;SDS011;8691;50.828;4.700;2022-10-20T12:59:57;7.85;;;3.53;;
17151;SDS011;8691;50.828;4.700;2022-10-20T13:04:57;4.88;;;3.05;;
17151;SDS011;8691;50.828;4.700;2022-10-20T13:12:53;5.37;;;3.20;;
17151;SDS011;8691;50.828;4.700;2022-10-20T13:15:20;6.07;;;3.17;;
17151;SDS011;8691;50.828;4.700;2022-10-20T13:23:14;5.27;;;2.50;;
17151;SDS011;8691;50.828;4.700;2022-10-20T13:25:43;4.33;;;2.50;;
17151;SDS011;8691;50.828;4.700;2022-10-20T13:28:26;7.05;;;2.70;;
17151;SDS011;8691;50.828;4.700;2022-10-20T13:41:30;2.93;;;2.10;;
17151;SDS011;8691;50.828;4.700;2022-10-20T13:44:02;5.50;;;2.35;;
17151;SDS011;8691;50.828;4.700;2022-10-20T13:46:33;6.30;;;2.62;;
17151;SDS011;8691;50.828;4.700;2022-10-20T13:51:49;4.23;;;2.07;;
17151;SDS011;8691;50.828;4.700;2022-10-20T13:54:26;4.23;;;2.20;;
17151;SDS011;8691;50.828;4.700;2022-10-20T13:56:55;4.28;;;2.35;;
17151;SDS011;8691;50.828;4.700;2022-10-20T13:59:23;6.47;;;2.57;;
17151;SDS011;8691;50.828;4.700;2022-10-20T14:02:00;4.90;;;2.62;;
17151;SDS011;8691;50.828;4.700;2022-10-20T14:04:27;4.13;;;1.97;;
17151;SDS011;8691;50.828;4.700;2022-10-20T14:06:52;6.40;;;2.55;;
17151;SDS011;8691;50.828;4.700;2022-10-20T14:09:20;6.18;;;2.38;;
17151;SDS011;8691;50.828;4.700;2022-10-20T14:11:47;6.38;;;2.25;;
17151;SDS011;8691;50.828;4.700;2022-10-20T14:14:13;7.60;;;2.70;;
17151;SDS011;8691;50.828;4.700;2022-10-20T14:16:50;6.23;;;2.87;;
17151;SDS011;8691;50.828;4.700;2022-10-20T14:19:18;6.32;;;2.65;;
17151;SDS011;8691;50.828;4.700;2022-10-20T14:21:46;6.20;;;2.40;;
17151;SDS011;8691;50.828;4.700;2022-10-20T14:24:15;4.93;;;2.30;;
17151;SDS011;8691;50.828;4.700;2022-10-20T14:26:40;6.05;;;2.40;;
17151;SDS011;8691;50.828;4.700;2022-10-20T14:29:06;4.00;;;2.40;;
17151;SDS011;8691;50.828;4.700;2022-10-20T14:31:32;4.77;;;2.33;;
17151;SDS011;8691;50.828;4.700;2022-10-20T14:33:59;5.03;;;2.20;;
17151;SDS011;8691;50.828;4.700;2022-10-20T14:36:27;6.45;;;2.58;;
17151;SDS011;8691;50.828;4.700;2022-10-20T14:38:54;7.25;;;2.45;;
17151;SDS011;8691;50.828;4.700;2022-10-20T14:41:29;7.20;;;2.77;;
17151;SDS011;8691;50.828;4.700;2022-10-20T14:43:56;4.10;;;2.10;;
17151;SDS011;8691;50.828;4.700;2022-10-20T14:46:36;4.10;;;2.50;;
17151;SDS011;8691;50.828;4.700;2022-10-20T14:49:20;5.55;;;2.35;;
17151;SDS011;8691;50.828;4.700;2022-10-20T14:51:51;6.57;;;2.53;;
17151;SDS011;8691;50.828;4.700;2022-10-20T14:59:36;4.83;;;2.60;;
17151;SDS011;8691;50.828;4.700;2022-10-20T15:02:03;4.35;;;2.75;;
17151;SDS011;8691;50.828;4.700;2022-10-20T15:04:35;6.07;;;2.60;;
17151;SDS011;8691;50.828;4.700;2022-10-20T15:07:21;5.82;;;2.60;;
17151;SDS011;8691;50.828;4.700;2022-10-20T15:09:50;6.33;;;2.60;;
17151;SDS011;8691;50.828;4.700;2022-10-20T15:15:02;6.93;;;2.47;;
17151;SDS011;8691;50.828;4.700;2022-10-20T15:17:32;5.90;;;2.67;;
17151;SDS011;8691;50.828;4.700;2022-10-20T15:19:57;5.68;;;2.42;;
17151;SDS011;8691;50.828;4.700;2022-10-20T15:22:24;5.27;;;2.53;;
17151;SDS011;8691;50.828;4.700;2022-10-20T15:24:52;6.10;;;2.30;;
17151;SDS011;8691;50.828;4.700;2022-10-20T15:27:18;6.87;;;2.50;;
17151;SDS011;8691;50.828;4.700;2022-10-20T15:29:48;4.00;;;2.70;;
17151;SDS011;8691;50.828;4.700;2022-10-20T15:32:14;6.63;;;2.57;;
17151;SDS011;8691;50.828;4.700;2022-10-20T15:34:42;10.23;;;7.85;;
17151;SDS011;8691;50.828;4.700;2022-10-20T15:37:09;6.40;;;2.97;;
17151;SDS011;8691;50.828;4.700;2022-10-20T15:39:36;4.90;;;2.60;;
17151;SDS011;8691;50.828;4.700;2022-10-20T15:42:03;6.40;;;2.78;;
17151;SDS011;8691;50.828;4.700;2022-10-20T15:44:30;6.60;;;2.67;;
17151;SDS011;8691;50.828;4.700;2022-10-20T15:46:57;4.57;;;2.73;;
17151;SDS011;8691;50.828;4.700;2022-10-20T15:49:25;7.00;;;2.80;;
17151;SDS011;8691;50.828;4.700;2022-10-20T15:51:51;5.03;;;2.40;;
17151;SDS011;8691;50.828;4.700;2022-10-20T15:54:19;5.07;;;2.80;;
17151;SDS011;8691;50.828;4.700;2022-10-20T15:56:45;7.25;;;2.80;;
17151;SDS011;8691;50.828;4.700;2022-10-20T15:59:12;5.67;;;2.87;;
17151;SDS011;8691;50.828;4.700;2022-10-20T16:01:39;6.00;;;3.00;;
17151;SDS011;8691;50.828;4.700;2022-10-20T16:04:14;5.90;;;2.90;;
17151;SDS011;8691;50.828;4.700;2022-10-20T16:06:42;6.97;;;2.60;;
17151;SDS011;8691;50.828;4.700;2022-10-20T16:09:09;5.20;;;3.10;;
17151;SDS011;8691;50.828;4.700;2022-10-20T16:11:36;5.57;;;2.95;;
17151;SDS011;8691;50.828;4.700;2022-10-20T16:14:03;4.50;;;2.47;;
17151;SDS011;8691;50.828;4.700;2022-10-20T16:16:29;6.97;;;2.95;;
17151;SDS011;8691;50.828;4.700;2022-10-20T16:18:57;6.93;;;3.00;;
17151;SDS011;8691;50.828;4.700;2022-10-20T16:21:24;6.63;;;4.23;;
17151;SDS011;8691;50.828;4.700;2022-10-20T16:23:51;7.72;;;2.95;;
17151;SDS011;8691;50.828;4.700;2022-10-20T16:26:17;7.60;;;3.25;;
17151;SDS011;8691;50.828;4.700;2022-10-20T16:28:44;7.80;;;3.70;;
17151;SDS011;8691;50.828;4.700;2022-10-20T16:31:12;5.68;;;3.05;;
17151;SDS011;8691;50.828;4.700;2022-10-20T16:33:39;5.90;;;2.80;;
17151;SDS011;8691;50.828;4.700;2022-10-20T16:36:07;7.37;;;2.80;;
17151;SDS011;8691;50.828;4.700;2022-10-20T16:38:34;6.80;;;3.63;;
17151;SDS011;8691;50.828;4.700;2022-10-20T16:41:05;7.20;;;3.13;;
17151;SDS011;8691;50.828;4.700;2022-10-20T16:43:30;7.57;;;2.90;;
17151;SDS011;8691;50.828;4.700;2022-10-20T16:45:57;6.93;;;3.20;;
17151;SDS011;8691;50.828;4.700;2022-10-20T16:48:24;7.33;;;3.07;;
17151;SDS011;8691;50.828;4.700;2022-10-20T16:50:51;6.55;;;3.12;;
17151;SDS011;8691;50.828;4.700;2022-10-20T16:53:18;7.35;;;2.85;;
17151;SDS011;8691;50.828;4.700;2022-10-20T16:55:50;4.55;;;2.90;;
17151;SDS011;8691;50.828;4.700;2022-10-20T16:58:16;8.38;;;3.33;;
17151;SDS011;8691;50.828;4.700;2022-10-20T17:00:44;5.77;;;3.30;;
17151;SDS011;8691;50.828;4.700;2022-10-20T17:03:11;8.30;;;4.75;;